Time;durP1;ratioP1;P1;durP2;ratioP2;P2;SDS_P1;SDS_P2;PMS_P1;PMS_P2;Temp;Humidity;BMP_temperature;BMP_pressure;BME280_temperature;BME280_humidity;BME280_pressure;Samples;Min_cycle;Max_cycle;Signal;HPM_P1;HPM_P2
2022/02/08 00:02:48;;;;;;;9.52;1.90;;;4.10;99.90;;;;;;12528594;28;20087;-89
2022/02/08 00:08:50;;;;;;;11.90;2.20;;;4.10;99.90;;;;;;12509657;28;20143;-89
2022/02/08 00:14:54;;;;;;;16.35;2.70;;;4.20;99.90;;;;;;12505121;28;20127;-90
2022/02/08 00:20:56;;;;;;;;;;;4.10;99.90;;;;;;12519534;28;20564;-90
2022/02/08 00:26:59;;;;;;;10.43;2.00;;;4.20;99.90;;;;;;12507934;28;19947;-89
2022/02/08 00:33:01;;;;;;;12.15;2.20;;;4.10;99.90;;;;;;12498027;28;20090;-90
2022/02/08 00:39:06;;;;;;;10.45;2.20;;;4.00;99.90;;;;;;12509691;28;20053;-90
2022/02/08 00:51:11;;;;;;;13.15;2.75;;;4.30;99.90;;;;;;12526496;28;20098;-90
2022/02/08 00:57:14;;;;;;;8.15;2.55;;;4.30;99.90;;;;;;12506764;28;20051;-90
2022/02/08 01:03:19;;;;;;;15.70;3.17;;;4.30;99.90;;;;;;12502710;28;20777;-90
2022/02/08 01:09:30;;;;;;;7.22;3.00;;;4.30;99.90;;;;;;12514714;28;20098;-89
2022/02/08 01:15:32;;;;;;;15.43;3.40;;;4.30;99.90;;;;;;12512618;28;20045;-89
2022/02/08 01:21:34;;;;;;;13.10;3.70;;;4.30;99.90;;;;;;12504735;28;20067;-89
2022/02/08 01:27:44;;;;;;;14.25;3.60;;;4.30;99.90;;;;;;12508276;28;20052;-89
2022/02/08 01:34:12;;;;;;;12.90;3.38;;;4.40;99.90;;;;;;12509016;28;20167;-88
2022/02/08 01:46:46;;;;;;;14.23;4.03;;;4.50;99.90;;;;;;12520766;28;20048;-91
2022/02/08 01:52:48;;;;;;;9.65;3.60;;;4.50;99.90;;;;;;12512593;28;20498;-88
2022/02/08 01:58:50;;;;;;;14.82;3.70;;;4.60;99.90;;;;;;12514177;28;20506;-90
2022/02/08 02:04:52;;;;;;;16.38;4.38;;;4.60;99.90;;;;;;12510707;28;20088;-91
2022/02/08 02:10:54;;;;;;;15.25;4.07;;;4.70;99.90;;;;;;12509787;28;20049;-88
2022/02/08 02:16:58;;;;;;;19.23;4.68;;;4.70;99.90;;;;;;12508050;28;20057;-89
2022/02/08 02:23:00;;;;;;;18.07;5.77;;;4.60;99.90;;;;;;12512579;28;20106;-91
2022/02/08 02:29:03;;;;;;;13.70;5.18;;;4.50;99.90;;;;;;12515517;28;20574;-89
2022/02/08 02:35:05;;;;;;;23.75;6.60;;;4.50;99.90;;;;;;12501711;28;20558;-88
2022/02/08 02:41:33;;;;;;;16.40;6.68;;;4.40;99.90;;;;;;12507760;28;20528;-90
2022/02/08 02:47:36;;;;;;;21.95;8.18;;;4.40;99.90;;;;;;12535199;28;20108;-89
2022/02/08 02:53:38;;;;;;;18.60;8.43;;;4.40;99.90;;;;;;12542463;28;20075;-90
2022/02/08 02:59:41;;;;;;;21.55;9.63;;;4.50;99.90;;;;;;12507902;28;20052;-89
2022/02/08 03:05:56;;;;;;;19.65;10.35;;;4.50;99.90;;;;;;12503754;28;20461;-89
2022/02/08 03:24:26;;;;;;;40.08;16.15;;;4.60;99.90;;;;;;12529009;28;20040;-89
2022/02/08 03:30:28;;;;;;;45.35;19.17;;;4.60;99.90;;;;;;12515871;28;20167;-87
2022/02/08 03:36:30;;;;;;;32.90;18.13;;;4.60;99.90;;;;;;12512585;28;20140;-88
2022/02/08 03:42:45;;;;;;;41.70;19.88;;;4.70;99.90;;;;;;12519242;28;20041;-91
2022/02/08 03:48:47;;;;;;;41.92;20.00;;;4.70;99.90;;;;;;12512240;28;20053;-89
2022/02/08 03:54:50;;;;;;;36.03;19.10;;;4.70;99.90;;;;;;12516480;28;20796;-90
2022/02/08 04:07:13;;;;;;;30.90;18.25;;;4.70;99.90;;;;;;12528091;28;20048;-91
2022/02/08 04:13:24;;;;;;;33.13;18.23;;;4.70;99.90;;;;;;12513771;28;20043;-91
2022/02/08 04:19:35;;;;;;;31.77;16.75;;;4.70;99.90;;;;;;12511768;28;20139;-91
2022/02/08 04:32:26;;;;;;;34.72;14.43;;;4.70;99.90;;;;;;12520396;28;20162;-90
2022/02/08 04:38:59;;;;;;;29.65;14.13;;;4.70;99.90;;;;;;12508805;28;20057;-92
2022/02/08 04:51:59;;;;;;;21.08;12.00;;;4.80;99.90;;;;;;12525319;28;20599;-93
2022/02/08 05:48:33;;;;;;;32.97;20.05;;;5.20;99.90;;;;;;12523771;28;20420;-90
2022/02/08 05:54:40;;;;;;;44.28;22.92;;;5.40;99.90;;;;;;12495497;28;20446;-90
2022/02/08 06:00:42;;;;;;;43.33;24.10;;;5.50;99.90;;;;;;12502660;28;20053;-91
2022/02/08 06:06:48;;;;;;;46.50;23.75;;;5.50;99.90;;;;;;12513909;28;20045;-91
2022/02/08 06:12:53;;;;;;;48.65;25.33;;;5.60;99.90;;;;;;12494782;28;20067;-92
2022/02/08 06:18:55;;;;;;;45.30;25.85;;;5.70;99.90;;;;;;12501232;28;20143;-91
2022/02/08 06:24:57;;;;;;;42.97;25.08;;;5.80;99.90;;;;;;12482619;28;20422;-90
2022/02/08 06:31:01;;;;;;;53.28;27.77;;;5.70;99.90;;;;;;12503722;28;20049;-91
2022/02/08 06:37:10;;;;;;;52.20;26.35;;;5.80;99.90;;;;;;12500291;28;20045;-90
2022/02/08 06:43:13;;;;;;;52.95;25.65;;;5.80;99.90;;;;;;12512489;28;20084;-89
2022/02/08 06:49:16;;;;;;;53.97;28.33;;;5.90;99.90;;;;;;12489603;28;20473;-90
2022/02/08 06:55:19;;;;;;;60.80;28.60;;;6.00;99.90;;;;;;12508958;28;20055;-90
2022/02/08 07:01:28;;;;;;;55.22;28.27;;;6.00;99.90;;;;;;12494229;28;20588;-92
2022/02/08 07:07:34;;;;;;;49.58;28.00;;;6.00;99.90;;;;;;12517116;28;20054;-90
2022/02/08 07:13:41;;;;;;;51.22;29.52;;;6.20;99.90;;;;;;12501384;28;20140;-90
2022/02/08 07:19:43;;;;;;;57.83;29.83;;;6.20;99.90;;;;;;12481235;28;20075;-91
2022/02/08 07:25:45;;;;;;;57.17;29.35;;;6.30;99.90;;;;;;12502771;28;20041;-90
2022/02/08 07:31:55;;;;;;;57.70;29.35;;;6.30;99.90;;;;;;12499303;28;20053;-90
2022/02/08 07:38:11;;;;;;;50.83;26.77;;;6.40;99.90;;;;;;12504856;28;20049;-90
2022/02/08 07:44:12;;;;;;;53.65;27.35;;;6.40;99.90;;;;;;12497255;28;20045;-91
2022/02/08 07:50:15;;;;;;;46.10;24.63;;;6.50;99.90;;;;;;12486510;28;20057;-91
2022/02/08 07:56:17;;;;;;;52.75;26.40;;;6.50;99.90;;;;;;12497670;28;20512;-91
2022/02/08 08:02:19;;;;;;;48.65;25.48;;;6.70;99.90;;;;;;12494136;28;20053;-89
2022/02/08 08:08:21;;;;;;;57.20;24.48;;;6.80;99.90;;;;;;12494368;28;20103;-91
2022/02/08 08:14:25;;;;;;;44.83;23.23;;;6.80;99.90;;;;;;12510320;28;20176;-91
2022/02/08 08:20:27;;;;;;;40.45;22.58;;;6.90;99.90;;;;;;12510109;28;20130;-91
2022/02/08 08:26:44;;;;;;;37.65;20.90;;;7.10;99.90;;;;;;12510095;28;20053;-91
2022/02/08 08:32:48;;;;;;;34.78;18.33;;;7.20;99.90;;;;;;12511332;28;20044;-90
2022/02/08 08:38:54;;;;;;;33.63;18.38;;;7.30;99.90;;;;;;12521258;28;20528;-91
2022/02/08 08:51:32;;;;;;;27.35;17.15;;;7.40;99.90;;;;;;12487090;28;20071;-90
2022/02/08 08:57:36;;;;;;;24.80;14.90;;;7.50;99.90;;;;;;12507582;28;20052;-91
2022/02/08 09:03:42;;;;;;;26.95;14.25;;;7.60;99.90;;;;;;12492742;28;20041;-90
2022/02/08 09:09:47;;;;;;;19.38;12.30;;;7.80;99.90;;;;;;12526052;28;20042;-91
2022/02/08 09:15:57;;;;;;;17.60;10.73;;;7.80;99.90;;;;;;12552466;28;20049;-91
2022/02/08 09:34:41;;;;;;;20.95;11.07;;;7.90;99.90;;;;;;12514490;28;20082;-90
2022/02/08 09:40:44;;;;;;;18.50;10.85;;;7.90;99.90;;;;;;12503415;28;20049;-91
2022/02/08 09:46:46;;;;;;;22.17;10.85;;;7.90;99.90;;;;;;12519684;28;20139;-90
2022/02/08 09:52:52;;;;;;;17.65;10.50;;;7.90;99.90;;;;;;12475957;28;20045;-91
2022/02/08 09:58:55;;;;;;;20.73;11.55;;;8.00;99.90;;;;;;12499856;28;20083;-89
2022/02/08 10:05:01;;;;;;;21.25;10.20;;;8.10;99.90;;;;;;12500689;28;20041;-90
2022/02/08 10:11:13;;;;;;;13.57;9.07;;;8.20;99.90;;;;;;12495703;28;20044;-91
2022/02/08 10:23:35;;;;;;;17.80;8.68;;;8.40;99.90;;;;;;12514403;28;20138;-89
2022/02/08 10:29:56;;;;;;;15.52;9.57;;;8.50;99.90;;;;;;12513922;28;20125;-90
2022/02/08 10:42:29;;;;;;;15.13;9.45;;;8.50;99.90;;;;;;12516316;28;20049;-90
2022/02/08 10:48:32;;;;;;;16.27;9.47;;;8.50;99.90;;;;;;12509029;28;20052;-89
2022/02/08 10:54:44;;;;;;;16.52;9.38;;;8.50;99.90;;;;;;12501917;28;20320;-90
2022/02/08 11:00:53;;;;;;;14.07;8.77;;;8.40;99.90;;;;;;12502416;28;20068;-90
2022/02/08 11:07:16;;;;;;;18.60;8.85;;;8.50;99.90;;;;;;12473158;28;20619;-89
2022/02/08 11:20:00;;;;;;;17.17;9.50;;;8.60;99.90;;;;;;12508409;28;20074;-90
2022/02/08 11:26:04;;;;;;;15.30;8.05;;;8.60;99.90;;;;;;12498991;28;20183;-89
2022/02/08 12:03:54;;;;;;;15.07;8.00;;;9.00;99.90;;;;;;12511506;28;20159;-90
2022/02/08 12:10:12;;;;;;;15.23;7.68;;;9.10;99.90;;;;;;12482568;28;20072;-90
2022/02/08 12:54:39;;;;;;;17.50;8.88;;;9.10;99.90;;;;;;12525006;28;20664;-89
2022/02/08 13:00:56;;;;;;;17.80;9.70;;;9.10;99.90;;;;;;12506544;28;20509;-89
2022/02/08 13:20:10;;;;;;;19.90;8.88;;;9.30;99.90;;;;;;12519161;28;20060;-89
2022/02/08 14:11:17;;;;;;;15.52;7.07;;;9.40;99.90;;;;;;12515176;28;20053;-89
2022/02/08 14:17:32;;;;;;;12.43;7.32;;;9.40;99.90;;;;;;12517280;28;20681;-89
2022/02/08 14:29:57;;;;;;;18.13;9.43;;;9.20;99.90;;;;;;12516353;28;20591;-89
2022/02/08 14:36:30;;;;;;;15.35;9.35;;;9.10;99.90;;;;;;12502557;28;20075;-90
2022/02/08 15:13:46;;;;;;;20.13;11.88;;;8.70;99.90;;;;;;12523913;28;20127;-89
2022/02/08 15:19:51;;;;;;;17.55;12.90;;;8.70;99.90;;;;;;12509644;28;20056;-90
2022/02/08 15:25:58;;;;;;;21.83;14.23;;;8.60;99.90;;;;;;12510268;28;20055;-89
2022/02/08 15:32:02;;;;;;;19.83;13.50;;;8.50;99.90;;;;;;12525969;28;20075;-90
2022/02/08 15:38:06;;;;;;;16.65;14.23;;;8.50;99.90;;;;;;12510732;28;20095;-91
2022/02/08 15:44:23;;;;;;;16.88;13.50;;;8.50;99.90;;;;;;12499314;28;20509;-90
2022/02/08 16:09:25;;;;;;;14.63;11.73;;;8.40;99.90;;;;;;12527537;28;20075;-92
2022/02/08 16:22:26;;;;;;;15.75;12.13;;;8.50;99.90;;;;;;12419684;28;20083;-91
2022/02/08 16:53:41;;;;;;;15.93;12.88;;;8.40;99.90;;;;;;12509483;28;20097;-90
2022/02/08 16:59:45;;;;;;;15.77;12.07;;;8.40;99.90;;;;;;12506217;28;20144;-89
2022/02/08 17:05:47;;;;;;;;;;;8.40;99.90;;;;;;12507685;28;21006;-90
2022/02/08 17:11:59;;;;;;;13.85;11.27;;;8.40;99.90;;;;;;12504540;28;19924;-90
2022/02/08 17:44:55;;;;;;;17.85;12.48;;;8.50;99.90;;;;;;12520485;28;20057;-90
2022/02/08 17:50:18;;;;;;;15.98;13.13;;;8.40;99.90;;;;;;12529411;28;20383;-91
2022/02/08 17:56:20;;;;;;;16.50;12.88;;;8.40;99.90;;;;;;12538160;28;20033;-92
2022/02/08 18:02:23;;;;;;;20.77;14.23;;;8.30;99.90;;;;;;12523290;28;20045;-91
2022/02/08 18:08:29;;;;;;;18.52;14.23;;;8.30;99.90;;;;;;12513745;28;20068;-90
2022/02/08 18:14:40;;;;;;;18.40;14.50;;;8.30;99.90;;;;;;12524819;28;20045;-91
2022/02/08 18:20:54;;;;;;;20.75;14.82;;;8.30;99.90;;;;;;12463776;28;20093;-91
2022/02/08 19:12:37;;;;;;;21.00;14.75;;;8.30;99.90;;;;;;12372977;28;20054;-89
2022/02/08 19:19:19;;;;;;;18.30;14.95;;;8.40;99.90;;;;;;12509787;28;20053;-90
2022/02/08 19:25:46;;;;;;;20.70;14.57;;;8.30;99.90;;;;;;12504626;28;20052;-90
2022/02/08 19:31:48;;;;;;;22.02;15.18;;;8.30;99.90;;;;;;12499172;28;20058;-91
2022/02/08 19:37:51;;;;;;;23.02;17.10;;;8.30;99.90;;;;;;12508350;28;20351;-90
2022/02/08 19:43:53;;;;;;;23.73;17.23;;;8.30;99.90;;;;;;12495726;28;20043;-91
2022/02/08 19:49:58;;;;;;;24.83;18.60;;;8.40;99.90;;;;;;12509366;28;20055;-90
2022/02/08 19:56:47;;;;;;;31.90;19.77;;;8.40;99.90;;;;;;12495473;28;20052;-89
2022/02/08 20:02:28;;;;;;;27.33;20.05;;;8.40;99.90;;;;;;12512342;28;20629;-91
2022/02/08 20:08:42;;;;;;;34.88;21.70;;;8.40;99.90;;;;;;12516208;28;20096;-92
2022/02/08 20:14:51;;;;;;;31.77;20.73;;;8.40;99.90;;;;;;12526732;28;20056;-91
2022/02/08 20:20:54;;;;;;;33.67;21.27;;;8.40;99.90;;;;;;12475777;28;20045;-92
2022/02/08 20:33:17;;;;;;;31.90;21.63;;;8.40;99.90;;;;;;12524445;28;20049;-90
2022/02/08 20:39:21;;;;;;;31.48;21.92;;;8.50;99.90;;;;;;12512179;28;20076;-91
2022/02/08 20:45:24;;;;;;;29.15;19.35;;;8.50;99.90;;;;;;12505696;28;20068;-90
2022/02/08 20:51:28;;;;;;;35.13;19.88;;;8.50;99.90;;;;;;12510023;28;20119;-91
2022/02/08 20:57:38;;;;;;;35.63;20.83;;;8.50;99.90;;;;;;12496722;28;20505;-92
2022/02/08 21:04:20;;;;;;;33.40;20.27;;;8.40;99.90;;;;;;12515535;28;20299;-90
2022/02/08 21:10:11;;;;;;;32.63;19.98;;;8.40;99.90;;;;;;12520939;28;20106;-90
2022/02/08 21:16:16;;;;;;;28.27;18.50;;;8.50;99.90;;;;;;12513965;28;20080;-91
2022/02/08 21:22:27;;;;;;;29.05;18.67;;;8.50;99.90;;;;;;12497486;28;20076;-91
2022/02/08 21:48:01;;;;;;;29.23;17.67;;;8.50;99.90;;;;;;12525935;28;20140;-91
2022/02/08 21:54:05;;;;;;;30.45;18.52;;;8.50;99.90;;;;;;12509548;28;20072;-91
2022/02/08 22:00:10;;;;;;;27.88;19.48;;;8.50;99.90;;;;;;12499801;28;20046;-89
2022/02/08 22:06:27;;;;;;;29.58;19.70;;;8.50;99.90;;;;;;12510034;28;20045;-89
2022/02/08 22:25:32;;;;;;;30.60;20.50;;;8.60;99.90;;;;;;12521593;28;20619;-90
2022/02/08 22:31:46;;;;;;;33.13;20.92;;;8.60;99.90;;;;;;12508610;28;20056;-90
2022/02/08 22:38:14;;;;;;;30.90;21.45;;;8.60;99.90;;;;;;12513539;28;20056;-90
2022/02/08 22:44:30;;;;;;;27.50;18.45;;;8.60;99.90;;;;;;12497832;28;20481;-90
2022/02/08 22:50:35;;;;;;;27.60;20.17;;;8.60;99.90;;;;;;12511724;28;20625;-90
2022/02/08 22:56:56;;;;;;;30.15;20.92;;;8.60;99.90;;;;;;12524171;28;20057;-91
2022/02/08 23:02:58;;;;;;;26.00;19.02;;;8.60;99.90;;;;;;12512037;28;20049;-90
2022/02/08 23:09:08;;;;;;;26.00;18.98;;;8.60;99.90;;;;;;12504365;28;20060;-89
2022/02/08 23:15:35;;;;;;;22.48;16.67;;;8.60;99.90;;;;;;12499283;28;20045;-89
2022/02/08 23:40:40;;;;;;;18.23;10.90;;;8.50;99.90;;;;;;12525048;28;20061;-90
2022/02/08 23:46:42;;;;;;;19.80;10.77;;;8.50;99.90;;;;;;12518311;28;20041;-90
2022/02/08 23:52:56;;;;;;;18.00;10.82;;;8.50;99.90;;;;;;12507972;28;20049;-90
2022/02/08 23:59:05;;;;;;;16.02;9.75;;;8.40;99.90;;;;;;12509894;28;20094;-91
